Strona główna
METAR-TAF:

METAR-TAF

Lotnisko :

Hagerstown, Maryland, Stany Zjednoczone

Szerokość geograficzna: 39-42-21N, Długość geograficzna: 077-43-48W, wysokość: 214 m

Aktualna obserwacja pogody

Raport powstał 12 minut temu, godzina 07:53 UTC
Wiatr 7 kt od wschodnio-południowy wschód
Temperatura 21°C
Wilgotność 88%
Ciśnienie 1019 hPa
Widzialność: 16.1 km
Zachmurzenie całkowite na wysokości 1100 ft
słaby deszcz

METAR: KHGR 280753Z AUTO 12007KT 10SM -RA OVC011 21/19 A3010 RMK AO2 RAB29 CIG 008V015 SLP196 P0000 T02110194

czas: 04:05 (08:05 UTC)


TAF: brakujący

Obserwacja i prognoza pogody dla ponad 4000 lotnisk (raport METAR i TAF).

Dostępne stacje oznaczono żółtymi i czerwonymi punktami na mapie.

Najedź kursorem aby zobaczyć nazwę stacji.

Kliknij aby zobaczyć obserwacje i prognozy pogody.

Aby zmienić mapę: kliknij na zielony przycisk z czarnym krzyżykiem, aby powiększyć; na zielony przycisk z myślnikiem, aby pomniejszyć; na zielone strzałki, aby przejść do map sąsiednich.


METAR-TAF: